Time;durP1;ratioP1;P1;durP2;ratioP2;P2;SDS_P1;SDS_P2;PMS_P1;PMS_P2;Temp;Humidity;BMP_temperature;BMP_pressure;BME280_temperature;BME280_humidity;BME280_pressure;Samples;Min_cycle;Max_cycle;Signal;HPM_P1;HPM_P2
2022/02/15 00:01:45;;;;;;;13.23;2.13;;;;;;;;;;4802396;29;20054;-75
2022/02/15 00:04:11;;;;;;;12.43;2.22;;;;;;;;;;4810956;29;20054;-77
2022/02/15 00:06:37;;;;;;;15.10;1.90;;;;;;;;;;4826275;29;20577;-78
2022/02/15 00:09:04;;;;;;;10.30;2.78;;;;;;;;;;4817673;29;20125;-75
2022/02/15 00:11:30;;;;;;;12.60;2.25;;;;;;;;;;4838192;29;20085;-74
2022/02/15 00:13:56;;;;;;;12.18;2.78;;;;;;;;;;4808679;29;20110;-74
2022/02/15 00:16:22;;;;;;;11.00;2.13;;;;;;;;;;4810859;29;20058;-75
2022/02/15 00:18:48;;;;;;;11.25;2.55;;;;;;;;;;4822781;29;20528;-74
2022/02/15 00:21:14;;;;;;;13.13;2.40;;;;;;;;;;4808847;29;20134;-74
2022/02/15 00:23:40;;;;;;;11.55;2.97;;;;;;;;;;4850221;29;20129;-74
2022/02/15 00:26:06;;;;;;;11.32;2.28;;;;;;;;;;4821088;29;20058;-76
2022/02/15 00:28:32;;;;;;;12.35;2.58;;;;;;;;;;4831036;29;20470;-74
2022/02/15 00:30:58;;;;;;;12.32;2.53;;;;;;;;;;4845752;29;20058;-74
2022/02/15 00:33:24;;;;;;;13.68;2.65;;;;;;;;;;4853247;29;20064;-74
2022/02/15 00:35:50;;;;;;;11.02;2.72;;;;;;;;;;4857419;29;20125;-74
2022/02/15 00:38:16;;;;;;;13.82;2.83;;;;;;;;;;4862425;29;20155;-74
2022/02/15 00:40:42;;;;;;;13.50;3.25;;;;;;;;;;4851140;29;20554;-74
2022/02/15 00:43:09;;;;;;;15.38;2.85;;;;;;;;;;4868123;29;20081;-74
2022/02/15 00:45:35;;;;;;;13.70;2.80;;;;;;;;;;4851383;29;20061;-75
2022/02/15 00:48:01;;;;;;;20.20;2.95;;;;;;;;;;4863061;29;20440;-74
2022/02/15 00:50:27;;;;;;;14.65;3.25;;;;;;;;;;4850630;29;20041;-74
2022/02/15 00:52:53;;;;;;;15.98;2.97;;;;;;;;;;4870026;29;20052;-75
2022/02/15 00:55:20;;;;;;;19.65;3.45;;;;;;;;;;4868923;29;20141;-83
2022/02/15 00:57:46;;;;;;;21.55;3.58;;;;;;;;;;4865795;29;20447;-75
2022/02/15 01:00:13;;;;;;;21.05;3.42;;;;;;;;;;4853763;29;20553;-79
2022/02/15 01:02:40;;;;;;;15.93;2.80;;;;;;;;;;4860980;29;20046;-76
2022/02/15 01:05:07;;;;;;;21.40;3.20;;;;;;;;;;4869175;29;20050;-75
2022/02/15 01:07:33;;;;;;;14.32;2.78;;;;;;;;;;4846422;29;20056;-76
2022/02/15 01:09:59;;;;;;;21.42;3.38;;;;;;;;;;4853574;29;20111;-76
2022/02/15 01:12:25;;;;;;;15.27;2.25;;;;;;;;;;4864786;29;20042;-75
2022/02/15 01:14:51;;;;;;;22.67;3.50;;;;;;;;;;4847542;29;20058;-75
2022/02/15 01:17:18;;;;;;;15.85;2.92;;;;;;;;;;4850967;29;20042;-76
2022/02/15 01:19:44;;;;;;;11.25;2.60;;;;;;;;;;4836276;29;20054;-75
2022/02/15 01:22:10;;;;;;;11.65;2.78;;;;;;;;;;4831333;29;20394;-75
2022/02/15 01:24:36;;;;;;;16.25;3.10;;;;;;;;;;4869091;29;20394;-75
2022/02/15 01:27:03;;;;;;;21.02;5.22;;;;;;;;;;4852606;29;20498;-75
2022/02/15 01:29:29;;;;;;;16.25;2.67;;;;;;;;;;4816003;29;20095;-76
2022/02/15 01:31:55;;;;;;;18.80;2.70;;;;;;;;;;4849664;29;20057;-75
2022/02/15 01:34:21;;;;;;;16.58;2.80;;;;;;;;;;4825821;29;20053;-75
2022/02/15 01:36:48;;;;;;;18.55;3.70;;;;;;;;;;4822552;29;20060;-75
2022/02/15 01:39:14;;;;;;;19.67;3.70;;;;;;;;;;4835979;29;20053;-76
2022/02/15 01:41:41;;;;;;;19.40;3.17;;;;;;;;;;4834222;29;20132;-77
2022/02/15 01:44:07;;;;;;;16.92;2.85;;;;;;;;;;4850256;29;20563;-77
2022/02/15 01:46:33;;;;;;;14.25;2.90;;;;;;;;;;4837549;29;20045;-76
2022/02/15 01:48:59;;;;;;;18.45;3.30;;;;;;;;;;4841623;29;20045;-78
2022/02/15 01:51:27;;;;;;;9.60;2.22;;;;;;;;;;4855607;29;20113;-78
2022/02/15 01:53:53;;;;;;;19.65;3.03;;;;;;;;;;4841251;29;20085;-75
2022/02/15 01:56:19;;;;;;;17.40;3.00;;;;;;;;;;4826102;29;20057;-76
2022/02/15 01:58:45;;;;;;;18.83;2.85;;;;;;;;;;4834363;29;20056;-75
2022/02/15 02:01:11;;;;;;;23.60;3.10;;;;;;;;;;4822289;29;20485;-75
2022/02/15 02:03:37;;;;;;;15.25;2.63;;;;;;;;;;4849352;29;20049;-75
2022/02/15 02:06:04;;;;;;;16.13;2.78;;;;;;;;;;4833781;29;20397;-75
2022/02/15 02:08:32;;;;;;;19.23;3.47;;;;;;;;;;4840312;29;20543;-76
2022/02/15 02:11:00;;;;;;;14.88;2.72;;;;;;;;;;4822080;29;20057;-75
2022/02/15 02:13:27;;;;;;;16.40;3.53;;;;;;;;;;4852881;29;20476;-79
2022/02/15 02:15:53;;;;;;;14.70;2.33;;;;;;;;;;4837833;29;20053;-74
2022/02/15 02:18:19;;;;;;;17.13;3.00;;;;;;;;;;4822645;29;20050;-74
2022/02/15 02:20:45;;;;;;;18.33;2.67;;;;;;;;;;4839257;29;20054;-75
2022/02/15 02:23:19;;;;;;;19.30;2.78;;;;;;;;;;4855112;29;20393;-74
2022/02/15 02:25:45;;;;;;;20.83;2.70;;;;;;;;;;4831926;29;20429;-75
2022/02/15 02:28:11;;;;;;;16.17;3.20;;;;;;;;;;4840183;29;20093;-75
2022/02/15 02:30:38;;;;;;;17.67;3.28;;;;;;;;;;4836620;29;20086;-75
2022/02/15 02:33:05;;;;;;;15.38;3.03;;;;;;;;;;4838813;29;20051;-74
2022/02/15 02:35:31;;;;;;;14.20;2.55;;;;;;;;;;4824799;29;20049;-75
2022/02/15 02:37:57;;;;;;;21.52;3.28;;;;;;;;;;4839188;29;20156;-75
2022/02/15 02:40:23;;;;;;;18.48;3.80;;;;;;;;;;4835104;29;20049;-75
2022/02/15 02:42:49;;;;;;;17.13;2.65;;;;;;;;;;4854879;29;21427;-74
2022/02/15 02:45:19;;;;;;;11.80;2.33;;;;;;;;;;4823733;29;20053;-75
2022/02/15 02:47:46;;;;;;;14.15;3.20;;;;;;;;;;4824789;29;20046;-75
2022/02/15 02:50:13;;;;;;;15.35;2.85;;;;;;;;;;4838621;29;20054;-74
2022/02/15 02:52:40;;;;;;;10.63;2.65;;;;;;;;;;4808801;29;20049;-75
2022/02/15 02:55:06;;;;;;;20.73;3.25;;;;;;;;;;4838362;29;20057;-76
2022/02/15 02:57:35;;;;;;;23.33;3.17;;;;;;;;;;4835392;29;20202;-75
2022/02/15 03:00:01;;;;;;;19.67;2.80;;;;;;;;;;4807403;29;20309;-76
2022/02/15 03:02:27;;;;;;;15.82;2.97;;;;;;;;;;4849849;29;20137;-75
2022/02/15 03:04:53;;;;;;;15.82;3.05;;;;;;;;;;4838104;29;20053;-74
2022/02/15 03:07:19;;;;;;;18.92;3.15;;;;;;;;;;4837076;29;20105;-75
2022/02/15 03:09:45;;;;;;;20.60;3.13;;;;;;;;;;4854237;29;20149;-75
2022/02/15 03:12:12;;;;;;;16.85;3.45;;;;;;;;;;4856933;29;20065;-75
2022/02/15 03:14:38;;;;;;;17.38;3.83;;;;;;;;;;4867534;29;20101;-75
2022/02/15 03:17:05;;;;;;;14.35;3.10;;;;;;;;;;4843297;29;20045;-74
2022/02/15 03:19:31;;;;;;;15.90;3.20;;;;;;;;;;4855704;29;20053;-75
2022/02/15 03:21:59;;;;;;;16.38;3.40;;;;;;;;;;4837984;29;20057;-75
2022/02/15 03:24:25;;;;;;;12.52;2.80;;;;;;;;;;4841194;29;20455;-75
2022/02/15 03:26:51;;;;;;;17.08;3.95;;;;;;;;;;4837682;29;20057;-74
2022/02/15 03:29:17;;;;;;;16.15;3.47;;;;;;;;;;4838368;29;20495;-74
2022/02/15 03:31:44;;;;;;;17.65;3.67;;;;;;;;;;4853963;29;20535;-75
2022/02/15 03:34:10;;;;;;;11.05;2.97;;;;;;;;;;4853394;29;20063;-75
2022/02/15 03:36:36;;;;;;;16.20;3.25;;;;;;;;;;4842420;29;20068;-75
2022/02/15 03:39:05;;;;;;;13.27;3.58;;;;;;;;;;4854203;29;20510;-75
2022/02/15 03:44:16;;;;;;;12.98;3.78;;;;;;;;;;4839406;29;20054;-74
2022/02/15 03:46:42;;;;;;;16.98;3.00;;;;;;;;;;4854898;29;20082;-74
2022/02/15 03:49:11;;;;;;;13.85;2.92;;;;;;;;;;4852668;29;20054;-75
2022/02/15 03:51:40;;;;;;;19.65;3.38;;;;;;;;;;4849551;29;20053;-74
2022/02/15 03:54:07;;;;;;;13.82;2.60;;;;;;;;;;4820640;29;20049;-75
2022/02/15 03:56:33;;;;;;;18.02;2.97;;;;;;;;;;4838279;29;20042;-77
2022/02/15 03:59:00;;;;;;;11.98;2.45;;;;;;;;;;4838471;29;20085;-74
2022/02/15 04:01:26;;;;;;;13.60;3.15;;;;;;;;;;4838004;29;20049;-75
2022/02/15 04:03:52;;;;;;;17.95;3.65;;;;;;;;;;4808556;29;20136;-74
2022/02/15 04:06:18;;;;;;;17.27;3.30;;;;;;;;;;4822404;29;20113;-75
2022/02/15 04:08:44;;;;;;;19.23;2.92;;;;;;;;;;4836135;29;20057;-76
2022/02/15 04:11:12;;;;;;;18.90;2.60;;;;;;;;;;4850744;29;20128;-74
2022/02/15 04:13:38;;;;;;;18.08;3.78;;;;;;;;;;4839808;29;20531;-75
2022/02/15 04:16:05;;;;;;;14.80;2.55;;;;;;;;;;4853463;29;20181;-75
2022/02/15 04:18:31;;;;;;;16.13;2.72;;;;;;;;;;4818091;29;20060;-74
2022/02/15 04:20:57;;;;;;;16.10;2.30;;;;;;;;;;4834394;29;20089;-75
2022/02/15 04:23:23;;;;;;;12.73;2.55;;;;;;;;;;4851704;29;20054;-75
2022/02/15 04:25:49;;;;;;;12.57;2.70;;;;;;;;;;4837173;29;20204;-75
2022/02/15 04:28:15;;;;;;;10.52;2.30;;;;;;;;;;4835675;29;20067;-75
2022/02/15 04:30:41;;;;;;;11.23;2.97;;;;;;;;;;4853692;29;20122;-75
2022/02/15 04:33:07;;;;;;;7.63;2.05;;;;;;;;;;4855666;29;20057;-74
2022/02/15 04:35:33;;;;;;;12.15;2.08;;;;;;;;;;4827047;29;20389;-74
2022/02/15 04:37:59;;;;;;;17.38;2.40;;;;;;;;;;4835214;29;20053;-75
2022/02/15 04:40:25;;;;;;;20.50;2.40;;;;;;;;;;4868256;29;20416;-75
2022/02/15 04:42:51;;;;;;;10.20;2.15;;;;;;;;;;4839477;29;20088;-75
2022/02/15 04:45:17;;;;;;;13.73;2.40;;;;;;;;;;4855480;29;20053;-74
2022/02/15 04:47:43;;;;;;;11.95;2.47;;;;;;;;;;4840858;29;20140;-76
2022/02/15 04:50:10;;;;;;;17.05;2.38;;;;;;;;;;4824355;29;20141;-74
2022/02/15 04:52:36;;;;;;;14.63;3.28;;;;;;;;;;4820743;29;20054;-75
2022/02/15 04:55:02;;;;;;;18.30;2.63;;;;;;;;;;4837876;29;20083;-75
2022/02/15 04:57:28;;;;;;;10.38;2.13;;;;;;;;;;4843170;29;20083;-75
2022/02/15 04:59:54;;;;;;;13.80;3.03;;;;;;;;;;4826553;29;20042;-75
2022/02/15 05:02:20;;;;;;;14.20;2.50;;;;;;;;;;4855782;29;20073;-75
2022/02/15 05:04:49;;;;;;;10.48;2.58;;;;;;;;;;4840311;29;20054;-75
2022/02/15 05:07:16;;;;;;;14.10;2.83;;;;;;;;;;4822617;29;20049;-75
2022/02/15 05:09:43;;;;;;;11.68;2.55;;;;;;;;;;4835264;29;20055;-75
2022/02/15 05:12:09;;;;;;;16.25;4.15;;;;;;;;;;4872346;29;20045;-75
2022/02/15 05:14:35;;;;;;;12.68;2.70;;;;;;;;;;4835945;29;20089;-75
2022/02/15 05:17:01;;;;;;;17.80;3.03;;;;;;;;;;4869561;29;20046;-75
2022/02/15 05:19:27;;;;;;;15.57;3.13;;;;;;;;;;4835172;29;20132;-73
2022/02/15 05:21:53;;;;;;;17.02;3.35;;;;;;;;;;4820563;29;20057;-75
2022/02/15 05:24:19;;;;;;;18.58;3.47;;;;;;;;;;4839020;29;20061;-77
2022/02/15 05:26:46;;;;;;;13.13;3.40;;;;;;;;;;4839766;29;20041;-77
2022/02/15 05:29:12;;;;;;;23.48;4.43;;;;;;;;;;4827287;29;20059;-75
2022/02/15 05:31:38;;;;;;;14.63;4.18;;;;;;;;;;4857854;29;20061;-74
2022/02/15 05:34:04;;;;;;;19.23;4.30;;;;;;;;;;4836648;29;20050;-72
2022/02/15 05:36:33;;;;;;;27.42;4.75;;;;;;;;;;4832260;29;20636;-72
2022/02/15 05:38:59;;;;;;;14.48;5.93;;;;;;;;;;4834894;29;20053;-75
2022/02/15 05:41:26;;;;;;;21.40;6.55;;;;;;;;;;4848384;29;20113;-74
2022/02/15 05:43:52;;;;;;;15.95;4.82;;;;;;;;;;4831467;29;20072;-72
2022/02/15 05:46:18;;;;;;;21.38;5.93;;;;;;;;;;4851049;29;20054;-73
2022/02/15 05:48:44;;;;;;;18.58;5.25;;;;;;;;;;4850383;29;20045;-74
2022/02/15 05:51:10;;;;;;;14.73;5.38;;;;;;;;;;4846493;29;20385;-75
2022/02/15 05:53:36;;;;;;;24.13;5.32;;;;;;;;;;4839320;29;20045;-73
2022/02/15 05:56:03;;;;;;;18.13;5.95;;;;;;;;;;4817934;29;20347;-76
2022/02/15 05:58:30;;;;;;;16.60;5.70;;;;;;;;;;4829651;29;20053;-75
2022/02/15 06:00:56;;;;;;;25.92;6.25;;;;;;;;;;4832768;29;20056;-83
2022/02/15 06:06:12;;;;;;;26.13;7.35;;;;;;;;;;4825694;29;20481;-78
2022/02/15 06:08:38;;;;;;;22.40;8.05;;;;;;;;;;4819532;29;20493;-75
2022/02/15 06:11:04;;;;;;;28.05;7.65;;;;;;;;;;4848109;29;20041;-73
2022/02/15 06:13:31;;;;;;;25.50;9.00;;;;;;;;;;4820262;29;20041;-75
2022/02/15 06:15:57;;;;;;;26.70;8.35;;;;;;;;;;4853688;29;20045;-73
2022/02/15 06:18:23;;;;;;;25.58;8.05;;;;;;;;;;4842483;29;20046;-73
2022/02/15 06:20:49;;;;;;;24.13;8.05;;;;;;;;;;4846054;29;20055;-73
2022/02/15 06:23:15;;;;;;;23.75;8.25;;;;;;;;;;4841314;29;20056;-74
2022/02/15 06:25:41;;;;;;;27.60;9.70;;;;;;;;;;4822780;29;20102;-73
2022/02/15 06:28:08;;;;;;;23.88;10.38;;;;;;;;;;4838284;29;20730;-74
2022/02/15 06:30:34;;;;;;;27.73;8.82;;;;;;;;;;4844949;29;20061;-75
2022/02/15 06:33:00;;;;;;;26.30;10.70;;;;;;;;;;4856649;29;20057;-74
2022/02/15 06:35:26;;;;;;;23.17;9.68;;;;;;;;;;4825512;29;20049;-77
2022/02/15 06:37:53;;;;;;;30.83;9.63;;;;;;;;;;4855768;29;20053;-74
2022/02/15 06:40:20;;;;;;;24.23;9.93;;;;;;;;;;4836510;29;20101;-74
2022/02/15 06:42:47;;;;;;;34.00;10.73;;;;;;;;;;4866344;29;20053;-74
2022/02/15 06:45:13;;;;;;;26.92;10.25;;;;;;;;;;4837805;29;20049;-73
2022/02/15 06:47:39;;;;;;;35.45;10.35;;;;;;;;;;4836292;29;20501;-74
2022/02/15 06:50:06;;;;;;;27.00;10.68;;;;;;;;;;4849530;29;20068;-74
2022/02/15 06:52:32;;;;;;;29.23;11.18;;;;;;;;;;4827353;29;20049;-74
2022/02/15 06:54:58;;;;;;;29.08;10.85;;;;;;;;;;4828270;29;20049;-76
2022/02/15 06:57:24;;;;;;;31.73;11.35;;;;;;;;;;4824418;29;20358;-74
2022/02/15 06:59:51;;;;;;;26.73;11.30;;;;;;;;;;4838851;29;20117;-73
2022/02/15 07:02:20;;;;;;;34.25;12.10;;;;;;;;;;4848969;29;20068;-76
2022/02/15 07:04:46;;;;;;;39.60;11.75;;;;;;;;;;4839439;29;20622;-75
2022/02/15 07:07:16;;;;;;;29.45;10.93;;;;;;;;;;4842206;29;20135;-74
2022/02/15 07:09:42;;;;;;;30.40;11.75;;;;;;;;;;4872044;29;20153;-74
2022/02/15 07:12:09;;;;;;;29.80;13.15;;;;;;;;;;4840211;29;20370;-74
2022/02/15 07:14:35;;;;;;;30.92;12.13;;;;;;;;;;4841882;29;20053;-74
2022/02/15 07:17:01;;;;;;;36.35;12.80;;;;;;;;;;4837282;29;20053;-74
2022/02/15 07:19:32;;;;;;;29.25;12.30;;;;;;;;;;4836016;29;20068;-76
2022/02/15 07:21:58;;;;;;;34.17;12.32;;;;;;;;;;4839200;29;20055;-74
2022/02/15 07:24:24;;;;;;;31.60;12.80;;;;;;;;;;4861719;29;20050;-74
2022/02/15 07:26:50;;;;;;;32.40;13.23;;;;;;;;;;4825624;29;20046;-74
2022/02/15 07:29:16;;;;;;;28.27;12.48;;;;;;;;;;4824038;29;20156;-74
2022/02/15 07:31:42;;;;;;;37.30;13.60;;;;;;;;;;4854843;29;20065;-77
2022/02/15 07:34:08;;;;;;;40.10;13.68;;;;;;;;;;4824294;29;20490;-74
2022/02/15 07:36:35;;;;;;;35.10;13.70;;;;;;;;;;4839753;29;20057;-75
2022/02/15 07:39:01;;;;;;;37.25;15.52;;;;;;;;;;4840011;29;20053;-74
2022/02/15 07:41:28;;;;;;;37.30;13.57;;;;;;;;;;4823084;29;20065;-75
2022/02/15 07:43:55;;;;;;;41.05;12.63;;;;;;;;;;4837285;29;20046;-74
2022/02/15 07:46:21;;;;;;;33.47;12.82;;;;;;;;;;4823963;29;20076;-74
2022/02/15 07:48:47;;;;;;;28.35;13.10;;;;;;;;;;4839407;29;20081;-75
2022/02/15 07:51:13;;;;;;;36.15;12.13;;;;;;;;;;4824092;29;20157;-77
2022/02/15 07:53:39;;;;;;;39.67;13.07;;;;;;;;;;4854580;29;20053;-75
2022/02/15 07:56:05;;;;;;;29.90;12.98;;;;;;;;;;4837287;29;20511;-75
2022/02/15 07:58:31;;;;;;;28.50;11.77;;;;;;;;;;4838277;29;20413;-74
2022/02/15 08:00:58;;;;;;;35.22;12.65;;;;;;;;;;4837521;29;20577;-78
2022/02/15 08:03:24;;;;;;;31.83;12.73;;;;;;;;;;4834573;29;20061;-75
2022/02/15 08:05:51;;;;;;;30.15;11.70;;;;;;;;;;4832798;29;20120;-75
2022/02/15 08:08:17;;;;;;;31.27;12.48;;;;;;;;;;4816371;29;20057;-75
2022/02/15 08:10:43;;;;;;;30.10;11.10;;;;;;;;;;4833732;29;20161;-74
2022/02/15 08:13:10;;;;;;;25.83;11.32;;;;;;;;;;4827454;29;20382;-76
2022/02/15 08:15:41;;;;;;;31.88;11.40;;;;;;;;;;4828256;29;20102;-75
2022/02/15 08:18:07;;;;;;;35.70;12.27;;;;;;;;;;4830479;29;20118;-75
2022/02/15 08:20:33;;;;;;;33.10;11.57;;;;;;;;;;4826361;29;20110;-79
2022/02/15 08:23:00;;;;;;;29.02;11.95;;;;;;;;;;4826564;29;20049;-76
2022/02/15 08:25:28;;;;;;;36.08;12.15;;;;;;;;;;4823514;29;20059;-76
2022/02/15 08:27:54;;;;;;;37.70;12.38;;;;;;;;;;4846718;29;20050;-75
2022/02/15 08:30:20;;;;;;;32.15;11.60;;;;;;;;;;4841839;29;20149;-75
2022/02/15 08:32:46;;;;;;;27.95;10.80;;;;;;;;;;4839742;29;20057;-76
2022/02/15 08:35:14;;;;;;;35.53;11.05;;;;;;;;;;4828552;29;20050;-75
2022/02/15 08:37:40;;;;;;;31.23;10.90;;;;;;;;;;4839708;29;20045;-76
2022/02/15 08:40:07;;;;;;;26.50;10.68;;;;;;;;;;4837521;29;20057;-79
2022/02/15 08:42:33;;;;;;;27.30;10.95;;;;;;;;;;4837815;29;20054;-77
2022/02/15 08:45:00;;;;;;;30.58;10.75;;;;;;;;;;4833661;29;20057;-76
2022/02/15 08:47:26;;;;;;;29.50;10.65;;;;;;;;;;4838279;29;20574;-76
2022/02/15 08:49:53;;;;;;;27.10;10.88;;;;;;;;;;4852724;29;20046;-75
2022/02/15 08:52:29;;;;;;;34.20;10.98;;;;;;;;;;4853086;29;20053;-76
2022/02/15 08:54:56;;;;;;;33.60;10.85;;;;;;;;;;4826627;29;20057;-77
2022/02/15 08:57:22;;;;;;;34.58;11.05;;;;;;;;;;4836919;29;20562;-76
2022/02/15 08:59:53;;;;;;;34.63;10.27;;;;;;;;;;4837530;29;20042;-76
2022/02/15 09:02:23;;;;;;;29.40;10.85;;;;;;;;;;4836321;29;20053;-79
2022/02/15 09:04:49;;;;;;;35.13;10.88;;;;;;;;;;4837385;29;20057;-78
2022/02/15 09:07:15;;;;;;;31.63;9.70;;;;;;;;;;4831783;29;20074;-77
2022/02/15 09:09:41;;;;;;;27.33;8.43;;;;;;;;;;4838773;29;20058;-77
2022/02/15 09:12:07;;;;;;;28.00;9.23;;;;;;;;;;4818369;29;20053;-77
2022/02/15 09:14:33;;;;;;;26.10;8.88;;;;;;;;;;4843317;29;20066;-77
2022/02/15 09:17:00;;;;;;;26.30;8.15;;;;;;;;;;4843119;29;20053;-76
2022/02/15 09:19:29;;;;;;;18.63;7.35;;;;;;;;;;4850732;29;20050;-78
2022/02/15 09:21:55;;;;;;;30.65;7.82;;;;;;;;;;4862052;29;20046;-77
2022/02/15 09:24:22;;;;;;;27.00;8.52;;;;;;;;;;4865861;29;20053;-77
2022/02/15 09:26:48;;;;;;;23.55;8.98;;;;;;;;;;4843977;29;20049;-78
2022/02/15 09:29:16;;;;;;;28.13;8.20;;;;;;;;;;4823230;29;20045;-75
2022/02/15 09:31:42;;;;;;;18.90;7.35;;;;;;;;;;4853285;29;20057;-81
2022/02/15 09:34:09;;;;;;;23.08;6.95;;;;;;;;;;4836105;29;20414;-81
2022/02/15 09:36:35;;;;;;;20.00;6.72;;;;;;;;;;4820480;29;20472;-78
2022/02/15 09:39:01;;;;;;;25.77;6.20;;;;;;;;;;4852152;29;20401;-79
2022/02/15 09:41:33;;;;;;;19.08;5.95;;;;;;;;;;4824332;29;20194;-84
2022/02/15 09:44:00;;;;;;;19.05;6.30;;;;;;;;;;4839918;29;20053;-81
2022/02/15 09:46:27;;;;;;;20.85;6.22;;;;;;;;;;4825303;29;20647;-81
2022/02/15 09:48:54;;;;;;;20.58;5.80;;;;;;;;;;4848744;29;20129;-80
2022/02/15 09:51:23;;;;;;;14.55;5.40;;;;;;;;;;4836968;29;20057;-80
2022/02/15 09:53:50;;;;;;;13.40;5.63;;;;;;;;;;4828225;29;20049;-79
2022/02/15 09:56:16;;;;;;;14.02;5.18;;;;;;;;;;4840702;29;20069;-79
2022/02/15 09:58:42;;;;;;;17.08;5.60;;;;;;;;;;4841396;29;20388;-82
2022/02/15 10:01:12;;;;;;;19.90;5.57;;;;;;;;;;4823601;29;20132;-81
2022/02/15 10:03:49;;;;;;;14.85;4.55;;;;;;;;;;4844715;29;20056;-80
2022/02/15 10:06:15;;;;;;;15.88;5.25;;;;;;;;;;4825292;29;20140;-78
2022/02/15 10:08:41;;;;;;;12.43;4.57;;;;;;;;;;4839849;29;20056;-81
2022/02/15 10:11:08;;;;;;;17.30;4.18;;;;;;;;;;4845171;29;20064;-79
2022/02/15 10:13:41;;;;;;;12.73;4.57;;;;;;;;;;4839977;29;20057;-80
2022/02/15 10:16:07;;;;;;;13.57;4.75;;;;;;;;;;4839962;29;20069;-80
2022/02/15 10:18:37;;;;;;;17.13;4.93;;;;;;;;;;4843853;29;20038;-80
2022/02/15 10:21:04;;;;;;;15.65;4.68;;;;;;;;;;4840029;29;20050;-86
2022/02/15 10:23:31;;;;;;;14.88;4.63;;;;;;;;;;4841274;29;20053;-88
2022/02/15 10:25:58;;;;;;;12.02;4.90;;;;;;;;;;4841084;29;20463;-85
2022/02/15 10:28:28;;;;;;;17.45;4.60;;;;;;;;;;4827660;29;20416;-85
2022/02/15 10:30:55;;;;;;;16.00;5.15;;;;;;;;;;4839533;29;20113;-81
2022/02/15 10:33:27;;;;;;;15.82;4.65;;;;;;;;;;4841131;29;20057;-80
2022/02/15 10:35:58;;;;;;;15.38;5.63;;;;;;;;;;4848481;29;20097;-80
2022/02/15 10:38:29;;;;;;;11.30;4.90;;;;;;;;;;4834448;29;20053;-80
2022/02/15 10:40:59;;;;;;;14.52;5.15;;;;;;;;;;4844626;29;20454;-83
2022/02/15 10:43:26;;;;;;;9.52;4.43;;;;;;;;;;4840917;29;20481;-82
2022/02/15 10:45:52;;;;;;;16.00;5.40;;;;;;;;;;4826164;29;20087;-83
2022/02/15 10:48:28;;;;;;;18.55;5.50;;;;;;;;;;4844300;29;20081;-82
2022/02/15 10:50:55;;;;;;;12.27;4.97;;;;;;;;;;4839284;29;20087;-83
2022/02/15 10:53:22;;;;;;;21.25;5.57;;;;;;;;;;4849012;29;20132;-82
2022/02/15 10:55:49;;;;;;;11.93;5.32;;;;;;;;;;4851210;29;20488;-83
2022/02/15 10:58:16;;;;;;;14.95;4.18;;;;;;;;;;4825961;29;20041;-83
2022/02/15 11:00:43;;;;;;;16.10;5.75;;;;;;;;;;4830329;29;20053;-83
2022/02/15 11:03:10;;;;;;;10.88;4.18;;;;;;;;;;4857154;29;20397;-83
2022/02/15 11:05:36;;;;;;;8.68;4.50;;;;;;;;;;4841490;29;20098;-82
2022/02/15 11:08:02;;;;;;;16.38;5.88;;;;;;;;;;4841707;29;20518;-84
2022/02/15 11:10:31;;;;;;;18.50;4.43;;;;;;;;;;4850618;29;20124;-82
2022/02/15 11:12:58;;;;;;;11.85;4.65;;;;;;;;;;4846774;29;20535;-83
2022/02/15 11:15:28;;;;;;;9.05;4.07;;;;;;;;;;4842320;29;20048;-82
2022/02/15 11:17:56;;;;;;;12.80;4.38;;;;;;;;;;4840898;29;20165;-83
2022/02/15 11:20:29;;;;;;;13.65;4.25;;;;;;;;;;4842330;29;20121;-85
2022/02/15 11:22:57;;;;;;;14.95;3.65;;;;;;;;;;4839233;29;20050;-82
2022/02/15 11:25:29;;;;;;;15.57;3.70;;;;;;;;;;4842496;29;20480;-83
2022/02/15 11:27:55;;;;;;;12.02;3.55;;;;;;;;;;4828755;29;20037;-84
2022/02/15 11:30:28;;;;;;;11.40;3.38;;;;;;;;;;4845687;29;20049;-83
2022/02/15 11:32:55;;;;;;;12.32;3.08;;;;;;;;;;4824150;29;20497;-84
2022/02/15 11:35:21;;;;;;;11.43;3.55;;;;;;;;;;4840314;29;20049;-83
2022/02/15 11:37:47;;;;;;;15.93;4.45;;;;;;;;;;4829013;29;20155;-83
2022/02/15 11:40:15;;;;;;;9.85;3.05;;;;;;;;;;4834917;29;20056;-84
2022/02/15 11:42:46;;;;;;;10.75;2.80;;;;;;;;;;4843837;29;20129;-84
2022/02/15 11:45:13;;;;;;;13.57;2.72;;;;;;;;;;4855270;29;20044;-87
2022/02/15 11:47:43;;;;;;;13.90;3.35;;;;;;;;;;4846989;29;20374;-81
2022/02/15 11:50:15;;;;;;;11.43;2.35;;;;;;;;;;4868490;29;20076;-81
2022/02/15 11:52:41;;;;;;;7.15;2.40;;;;;;;;;;4858820;29;20061;-90
2022/02/15 11:55:13;;;;;;;9.85;2.47;;;;;;;;;;4850986;29;20050;-82
2022/02/15 11:57:40;;;;;;;11.88;2.25;;;;;;;;;;4856552;29;20064;-90
2022/02/15 12:00:07;;;;;;;9.63;1.85;;;;;;;;;;4857386;29;20053;-86
2022/02/15 12:02:34;;;;;;;12.05;1.75;;;;;;;;;;4850524;29;20054;-87
2022/02/15 12:05:04;;;;;;;10.02;1.75;;;;;;;;;;4835661;29;20049;-86
2022/02/15 12:07:30;;;;;;;10.02;2.20;;;;;;;;;;4886569;29;20074;-88
2022/02/15 12:09:59;;;;;;;7.47;1.80;;;;;;;;;;4850044;29;20489;-85
2022/02/15 12:12:36;;;;;;;7.40;2.15;;;;;;;;;;4841285;29;20090;-87
2022/02/15 12:15:05;;;;;;;6.97;1.35;;;;;;;;;;4846204;29;20078;-86
2022/02/15 12:17:32;;;;;;;9.48;1.63;;;;;;;;;;4849987;29;20056;-88
2022/02/15 12:19:59;;;;;;;11.50;2.15;;;;;;;;;;4843479;29;20056;-88
2022/02/15 12:22:26;;;;;;;10.88;1.60;;;;;;;;;;4829399;29;20076;-89
2022/02/15 12:24:54;;;;;;;10.93;1.38;;;;;;;;;;4852300;29;20049;-92
2022/02/15 12:27:21;;;;;;;9.68;1.70;;;;;;;;;;4841765;29;20131;-85
2022/02/15 12:29:50;;;;;;;4.68;0.98;;;;;;;;;;4841396;29;20053;-77
2022/02/15 12:32:21;;;;;;;8.40;1.67;;;;;;;;;;4838124;29;20069;-77
2022/02/15 12:34:47;;;;;;;7.03;1.55;;;;;;;;;;4844615;29;20087;-79
2022/02/15 12:37:18;;;;;;;11.27;2.33;;;;;;;;;;4847646;29;20067;-84
2022/02/15 12:39:44;;;;;;;10.05;1.05;;;;;;;;;;4838447;29;20052;-88
2022/02/15 12:42:14;;;;;;;5.07;1.15;;;;;;;;;;4855797;29;20109;-83
2022/02/15 12:44:41;;;;;;;7.43;1.40;;;;;;;;;;4835142;29;20446;-83
2022/02/15 12:47:07;;;;;;;6.13;1.50;;;;;;;;;;4836847;29;20103;-85
2022/02/15 12:49:33;;;;;;;4.85;1.17;;;;;;;;;;4853385;29;20049;-84
2022/02/15 12:51:59;;;;;;;7.15;1.60;;;;;;;;;;4830216;29;20097;-85
2022/02/15 12:54:25;;;;;;;6.50;1.38;;;;;;;;;;4851779;29;20559;-84
2022/02/15 12:56:52;;;;;;;8.23;1.20;;;;;;;;;;4841984;29;20075;-86
2022/02/15 12:59:22;;;;;;;13.10;2.75;;;;;;;;;;4844488;29;20045;-82
2022/02/15 13:01:56;;;;;;;7.80;1.30;;;;;;;;;;4857679;29;20058;-83
2022/02/15 13:04:22;;;;;;;6.57;1.35;;;;;;;;;;4841822;29;20377;-86
2022/02/15 13:06:52;;;;;;;10.85;1.67;;;;;;;;;;4842477;29;20488;-84
2022/02/15 13:09:18;;;;;;;8.05;1.65;;;;;;;;;;4832371;29;20053;-85
2022/02/15 13:11:44;;;;;;;8.77;1.92;;;;;;;;;;4834909;29;20057;-86
2022/02/15 13:14:11;;;;;;;11.45;1.88;;;;;;;;;;4855029;29;20056;-86
2022/02/15 13:16:39;;;;;;;9.23;1.70;;;;;;;;;;4829279;29;20045;-86
2022/02/15 13:19:05;;;;;;;7.75;1.58;;;;;;;;;;4827873;29;20128;-86
2022/02/15 13:21:33;;;;;;;12.65;2.28;;;;;;;;;;4846503;29;20063;-87
2022/02/15 13:24:01;;;;;;;6.97;1.75;;;;;;;;;;4831210;29;20056;-88
2022/02/15 13:26:31;;;;;;;10.90;1.63;;;;;;;;;;4850422;29;20045;-87
2022/02/15 13:28:57;;;;;;;7.68;1.70;;;;;;;;;;4850918;29;20037;-88
2022/02/15 13:31:25;;;;;;;5.78;1.55;;;;;;;;;;4826370;29;20196;-87
2022/02/15 13:33:52;;;;;;;8.73;1.85;;;;;;;;;;4841713;29;20497;-88
2022/02/15 13:36:29;;;;;;;6.43;1.63;;;;;;;;;;4845042;29;20084;-86
2022/02/15 13:38:56;;;;;;;6.80;1.52;;;;;;;;;;4839257;29;20387;-82
2022/02/15 13:41:22;;;;;;;9.60;1.60;;;;;;;;;;4840083;29;20062;-90
2022/02/15 13:44:02;;;;;;;11.48;1.60;;;;;;;;;;4839398;29;20465;-84
2022/02/15 13:46:29;;;;;;;8.93;2.50;;;;;;;;;;4844260;29;20045;-80
2022/02/15 13:48:56;;;;;;;5.63;1.80;;;;;;;;;;4855876;29;20777;-78
2022/02/15 13:51:22;;;;;;;7.03;1.40;;;;;;;;;;4855505;29;20049;-76
2022/02/15 13:53:48;;;;;;;8.07;1.60;;;;;;;;;;4855871;29;20092;-80
2022/02/15 13:56:14;;;;;;;7.05;1.92;;;;;;;;;;4847348;29;20048;-86
2022/02/15 13:58:40;;;;;;;10.15;1.50;;;;;;;;;;4825178;29;20041;-84
2022/02/15 14:01:07;;;;;;;11.38;2.60;;;;;;;;;;4846383;29;20053;-79
2022/02/15 14:03:33;;;;;;;10.00;1.80;;;;;;;;;;4830977;29;20057;-80
2022/02/15 14:05:59;;;;;;;8.45;1.95;;;;;;;;;;4841008;29;20461;-78
2022/02/15 14:08:25;;;;;;;12.43;1.63;;;;;;;;;;4871045;29;20113;-79
2022/02/15 14:10:51;;;;;;;6.43;1.55;;;;;;;;;;4832051;29;20049;-79
2022/02/15 14:13:17;;;;;;;12.82;1.83;;;;;;;;;;4848738;29;20088;-81
2022/02/15 14:15:43;;;;;;;9.98;1.50;;;;;;;;;;4837433;29;20053;-85
2022/02/15 14:18:09;;;;;;;11.45;1.75;;;;;;;;;;4841828;29;20080;-82
2022/02/15 14:20:35;;;;;;;5.90;1.20;;;;;;;;;;4840925;29;20053;-82
2022/02/15 14:23:01;;;;;;;7.80;1.50;;;;;;;;;;4860228;29;20049;-81
2022/02/15 14:25:28;;;;;;;7.95;1.70;;;;;;;;;;4825608;29;20102;-84
2022/02/15 14:28:03;;;;;;;12.85;2.10;;;;;;;;;;4839472;29;20487;-81
2022/02/15 14:30:29;;;;;;;5.60;1.02;;;;;;;;;;4826394;29;20061;-86
2022/02/15 14:32:58;;;;;;;8.60;1.30;;;;;;;;;;4841787;29;20093;-77